createdAt,value
2022-11-22T00:01:08.427Z,96060.41
2022-11-22T00:06:10.897Z,96043.53
2022-11-22T00:11:13.271Z,96030.16
2022-11-22T00:16:15.734Z,96024.00
2022-11-22T00:21:18.352Z,96015.53
2022-11-22T00:26:21.077Z,96008.53
2022-11-22T00:31:24.186Z,96008.19
2022-11-22T00:36:26.830Z,96021.84
2022-11-22T00:41:29.291Z,96018.81
2022-11-22T00:46:31.724Z,96021.19
2022-11-22T00:51:34.226Z,96028.97
2022-11-22T00:56:37.020Z,96042.78
2022-11-22T01:01:40.833Z,96055.81
2022-11-22T01:06:43.254Z,96064.22
2022-11-22T01:11:45.991Z,96072.78
2022-11-22T01:16:49.151Z,96063.22
2022-11-22T01:21:51.829Z,96074.31
2022-11-22T01:26:54.377Z,96074.63
2022-11-22T01:31:56.819Z,96077.91
2022-11-22T01:36:59.274Z,96079.16
2022-11-22T01:42:01.902Z,96078.50
2022-11-22T01:47:25.222Z,96073.44
2022-11-22T01:52:32.564Z,96065.19
2022-11-22T01:57:38.087Z,96074.69
2022-11-22T02:02:41.137Z,96073.47
2022-11-22T02:07:53.349Z,96086.06
2022-11-22T02:12:59.553Z,96086.78
2022-11-22T02:18:01.968Z,96083.53
2022-11-22T02:23:23.754Z,96084.00
2022-11-22T02:28:28.868Z,96096.13
2022-11-22T02:33:31.339Z,96113.53
2022-11-22T02:38:35.542Z,96100.16
2022-11-22T02:43:44.835Z,96099.59
2022-11-22T02:48:52.687Z,96104.09
2022-11-22T02:53:56.880Z,96102.47
2022-11-22T02:58:59.397Z,96098.44
2022-11-22T03:04:01.841Z,96105.69
2022-11-22T03:09:04.396Z,96114.38
2022-11-22T03:14:09.942Z,96108.91
2022-11-22T03:19:13.065Z,96122.78
2022-11-22T03:24:15.854Z,96124.41
2022-11-22T03:29:19.221Z,96134.91
2022-11-22T03:34:21.959Z,96144.31
2022-11-22T03:39:24.393Z,96139.44
2022-11-22T03:44:26.742Z,96141.53
2022-11-22T03:49:29.369Z,96133.47
2022-11-22T03:54:31.962Z,96136.56
2022-11-22T03:59:37.082Z,96137.69
2022-11-22T04:04:39.630Z,96132.75
2022-11-22T04:09:45.012Z,96149.53
2022-11-22T04:15:05.981Z,96152.63
2022-11-22T04:20:33.801Z,96148.13
2022-11-22T04:25:38.186Z,96153.59
2022-11-22T04:30:59.812Z,96154.84
2022-11-22T04:36:02.329Z,96153.16
2022-11-22T04:41:04.719Z,96160.63
2022-11-22T04:46:07.170Z,96158.38
2022-11-22T04:51:32.552Z,96158.63
2022-11-22T04:56:34.957Z,96144.81
2022-11-22T05:01:37.388Z,96135.53
2022-11-22T05:06:39.939Z,96148.44
2022-11-22T05:11:42.375Z,96147.44
2022-11-22T05:16:44.782Z,96162.34
2022-11-22T05:21:47.220Z,96173.25
2022-11-22T05:26:50.277Z,96188.22
2022-11-22T05:31:52.653Z,96176.81
2022-11-22T05:36:55.090Z,96192.53
2022-11-22T05:42:05.928Z,96183.34
2022-11-22T05:47:09.427Z,96188.03
2022-11-22T05:52:11.779Z,96184.78
2022-11-22T05:57:14.175Z,96190.84
2022-11-22T06:02:16.646Z,96201.38
2022-11-22T06:07:20.671Z,96202.69
2022-11-22T06:12:26.118Z,96218.75
2022-11-22T06:17:28.536Z,96219.25
2022-11-22T06:22:31.468Z,96232.81
2022-11-22T06:27:34.016Z,96230.94
2022-11-22T06:32:36.527Z,96231.19
2022-11-22T06:37:39.122Z,96237.56
2022-11-22T06:42:41.520Z,96246.00
2022-11-22T06:47:43.867Z,96257.13
2022-11-22T06:52:52.079Z,96272.88
2022-11-22T06:57:54.426Z,96288.44
2022-11-22T07:02:56.820Z,96292.44
2022-11-22T07:08:05.501Z,96312.41
2022-11-22T07:13:12.901Z,96315.25
2022-11-22T07:18:15.315Z,96311.31
2022-11-22T07:23:18.055Z,96328.38
2022-11-22T07:28:21.037Z,96332.13
2022-11-22T07:33:23.546Z,96342.81
2022-11-22T07:38:27.366Z,96346.69
2022-11-22T07:43:30.096Z,96353.28
2022-11-22T07:48:32.628Z,96367.22
2022-11-22T07:53:35.918Z,96355.47
2022-11-22T07:58:38.788Z,96369.06
2022-11-22T08:03:41.719Z,96362.50
2022-11-22T08:08:44.321Z,96363.38
2022-11-22T08:13:46.810Z,96363.38
2022-11-22T08:18:50.154Z,96353.53
2022-11-22T08:23:57.241Z,96360.34
2022-11-22T08:28:59.753Z,96365.75
2022-11-22T08:34:02.340Z,96354.41
2022-11-22T08:39:04.808Z,96367.66
2022-11-22T08:44:07.326Z,96364.63
2022-11-22T08:49:11.828Z,96351.97
2022-11-22T08:54:15.513Z,96344.47
2022-11-22T08:59:18.023Z,96347.38
2022-11-22T09:04:23.190Z,96337.41
2022-11-22T09:09:41.008Z,96335.66
2022-11-22T09:14:43.671Z,96325.16
2022-11-22T09:19:46.317Z,96327.53
2022-11-22T09:24:48.774Z,96329.13
2022-11-22T09:29:54.231Z,96341.34
2022-11-22T09:34:59.750Z,96369.38
2022-11-22T09:40:02.126Z,96370.66
2022-11-22T09:45:05.692Z,96380.41
2022-11-22T09:50:32.533Z,96388.81
2022-11-22T09:55:39.116Z,96390.50
2022-11-22T10:00:47.801Z,96393.47
2022-11-22T10:05:57.364Z,96404.22
2022-11-22T10:11:03.779Z,96411.00
2022-11-22T10:16:22.533Z,96411.22
2022-11-22T10:21:26.289Z,96417.56
2022-11-22T10:26:35.283Z,96423.78
2022-11-22T10:31:46.836Z,96421.91
2022-11-22T10:37:01.970Z,96415.50
2022-11-22T10:42:25.706Z,96418.25
2022-11-22T10:47:39.272Z,96424.59
2022-11-22T10:53:13.113Z,96416.81
2022-11-22T10:58:39.663Z,96415.69
2022-11-22T11:03:46.274Z,96421.94
2022-11-22T11:14:32.434Z,96415.91
2022-11-22T11:19:41.818Z,96414.06
2022-11-22T11:24:44.238Z,96408.66
2022-11-22T11:30:03.984Z,96394.69
2022-11-22T11:35:08.872Z,96391.53
2022-11-22T11:40:35.112Z,96401.00
2022-11-22T11:45:37.492Z,96380.44
2022-11-22T11:50:39.926Z,96377.28
2022-11-22T11:55:42.379Z,96359.91
2022-11-22T12:00:45.301Z,96354.66
2022-11-22T12:06:14.303Z,96348.66
2022-11-22T12:11:30.727Z,96344.13
2022-11-22T12:16:40.297Z,96338.41
2022-11-22T12:22:24.294Z,96334.88
2022-11-22T12:27:36.537Z,96326.75
2022-11-22T12:32:51.975Z,96321.28
2022-11-22T12:37:56.507Z,96324.63
2022-11-22T12:43:28.850Z,96315.44
2022-11-22T12:48:38.057Z,96320.41
2022-11-22T12:53:47.004Z,96324.00
2022-11-22T12:59:34.271Z,96322.50
2022-11-22T13:04:57.822Z,96315.88
2022-11-22T13:10:12.783Z,96311.66
2022-11-22T13:15:26.416Z,96301.13
2022-11-22T13:20:42.743Z,96296.59
2022-11-22T13:26:06.386Z,96296.94
2022-11-22T13:31:11.869Z,96315.88
2022-11-22T13:36:25.513Z,96312.41
2022-11-22T13:41:36.464Z,96311.38
2022-11-22T13:47:02.055Z,96311.66
2022-11-22T13:52:25.735Z,96319.50
2022-11-22T13:57:31.208Z,96317.97
2022-11-22T14:02:34.064Z,96341.75
2022-11-22T14:07:40.973Z,96332.69
2022-11-22T14:13:10.183Z,96343.06
2022-11-22T14:18:15.641Z,96330.56
2022-11-22T14:23:24.119Z,96335.50
2022-11-22T14:29:01.749Z,96338.66
2022-11-22T14:34:21.302Z,96349.91
2022-11-22T14:39:45.632Z,96347.31
2022-11-22T14:44:51.882Z,96342.50
2022-11-22T14:49:56.001Z,96345.06
2022-11-22T14:55:06.153Z,96357.56
2022-11-22T15:00:21.027Z,96353.66
2022-11-22T15:09:13.164Z,96357.88
2022-11-22T15:11:37.251Z,96348.53
2022-11-22T16:00:43.533Z,96400.16
2022-11-22T16:06:10.076Z,96419.16
2022-11-22T16:11:21.298Z,96414.91
2022-11-22T16:16:29.322Z,96429.66
2022-11-22T16:21:32.698Z,96419.00
2022-11-22T16:26:35.260Z,96423.75
2022-11-22T16:31:40.000Z,96431.28
2022-11-22T16:36:42.466Z,96427.41
2022-11-22T16:41:44.958Z,96428.28
2022-11-22T16:46:47.902Z,96430.53
2022-11-22T16:51:51.467Z,96433.94
2022-11-22T16:56:54.025Z,96431.84
2022-11-22T17:01:56.467Z,96446.56
2022-11-22T17:06:59.054Z,96440.84
2022-11-22T17:12:01.772Z,96446.44
2022-11-22T17:17:04.275Z,96457.56
2022-11-22T17:22:09.395Z,96470.16
2022-11-22T17:27:16.514Z,96473.00
2022-11-22T17:32:19.868Z,96482.31
2022-11-22T17:37:22.740Z,96472.63
2022-11-22T17:42:25.223Z,96476.16
2022-11-22T17:47:34.410Z,96472.28
2022-11-22T17:52:36.804Z,96487.84
2022-11-22T17:57:41.304Z,96490.25
2022-11-22T18:02:44.022Z,96491.16
2022-11-22T18:07:46.489Z,96502.72
2022-11-22T18:13:13.523Z,96502.91
2022-11-22T18:18:33.342Z,96506.22
2022-11-22T18:23:36.581Z,96505.34
2022-11-22T18:28:42.815Z,96525.72
2022-11-22T18:33:45.251Z,96515.03
2022-11-22T18:38:53.137Z,96524.22
2022-11-22T18:43:57.026Z,96529.63
2022-11-22T18:48:59.464Z,96536.06
2022-11-22T18:54:01.904Z,96544.09
2022-11-22T18:59:06.327Z,96543.38
2022-11-22T19:04:13.858Z,96551.41
2022-11-22T19:09:16.318Z,96546.75
2022-11-22T19:14:18.718Z,96543.72
2022-11-22T19:19:21.490Z,96546.50
2022-11-22T19:24:24.105Z,96554.31
2022-11-22T19:29:26.524Z,96554.06
2022-11-22T19:34:30.168Z,96551.66
2022-11-22T19:39:33.305Z,96562.63
2022-11-22T19:44:38.698Z,96557.69
2022-11-22T19:49:41.085Z,96556.81
2022-11-22T19:54:43.490Z,96564.25
2022-11-22T19:59:45.950Z,96559.59
2022-11-22T20:04:48.400Z,96573.31
2022-11-22T20:09:51.017Z,96568.41
2022-11-22T20:14:53.696Z,96580.63
2022-11-22T20:19:56.066Z,96574.19
2022-11-22T20:24:59.863Z,96577.63
2022-11-22T20:30:02.383Z,96582.28
2022-11-22T20:35:07.773Z,96586.00
2022-11-22T20:40:12.712Z,96600.59
2022-11-22T20:45:15.073Z,96594.47
2022-11-22T20:50:17.843Z,96603.31
2022-11-22T20:55:21.456Z,96608.91
2022-11-22T21:00:24.081Z,96612.81
2022-11-22T21:05:29.489Z,96611.50
2022-11-22T21:10:32.222Z,96610.00
2022-11-22T21:15:35.052Z,96613.16
2022-11-22T21:20:37.812Z,96624.81
2022-11-22T21:25:40.159Z,96620.59
2022-11-22T21:30:42.509Z,96627.28
2022-11-22T21:35:45.824Z,96634.19
2022-11-22T21:41:05.619Z,96644.13
2022-11-22T21:46:18.447Z,96640.44
2022-11-22T21:51:21.879Z,96640.31
2022-11-22T21:56:24.703Z,96650.13
2022-11-22T22:01:27.531Z,96654.22
2022-11-22T22:06:30.330Z,96658.19
2022-11-22T22:11:35.334Z,96660.53
2022-11-22T22:16:38.131Z,96656.22
2022-11-22T22:21:40.686Z,96653.38
2022-11-22T22:26:43.304Z,96650.84
2022-11-22T22:31:45.806Z,96647.41
2022-11-22T22:36:48.552Z,96649.59
2022-11-22T22:41:51.255Z,96650.78
2022-11-22T22:46:53.978Z,96656.44
2022-11-22T22:51:56.348Z,96666.78
2022-11-22T22:56:58.676Z,96669.16
2022-11-22T23:02:01.150Z,96666.56
2022-11-22T23:07:03.541Z,96677.25
2022-11-22T23:12:12.100Z,96674.06
2022-11-22T23:17:14.743Z,96681.81
2022-11-22T23:22:19.879Z,96678.03
2022-11-22T23:27:24.415Z,96678.09
2022-11-22T23:32:29.558Z,96672.03
2022-11-22T23:37:31.939Z,96674.38
2022-11-22T23:42:34.287Z,96684.13
2022-11-22T23:47:36.674Z,96690.19
2022-11-22T23:52:39.050Z,96676.88
2022-11-22T23:57:41.601Z,96673.44
